Abingdon, Virginia
Current Conditions -  °F | °C
As of 2:55 PM on Monday 24 Nov 2014 (Local Time) from KVJI Reporting Station
Clear Clear  
Wind Chill: 71°   Ceiling: Unl
Heat Index: 71°   Visibility: 10mi
Dew Point: 37°   Wind: 28mph
Humidity: 29%   Direction: 280°W
Pressure: 29.73"   Gusts: 39mph
Location:  36.71°N, 81.98°W
Report Text: KVJI 241955Z AUTO 28024G34KT 10SM CLR 22/03 A2973 RMK AO2 LTG DSNT N T02150028
Loading
Personal Weather Stations






























Interactive Weather Map New forecast layout! Learn more

10-Day Weather Forecast

Advertisements
Track Severe Weather on mobile